Time;durP1;ratioP1;P1;durP2;ratioP2;P2;SDS_P1;SDS_P2;PMS_P1;PMS_P2;Temp;Humidity;BMP_temperature;BMP_pressure;BME280_temperature;BME280_humidity;BME280_pressure;Samples;Min_cycle;Max_cycle;Signal;HPM_P1;HPM_P2
2023/10/08 00:01:43;;;;;;;27.33;5.55;;;;;;;;;;5115670;28;20015;-28
2023/10/08 00:04:10;;;;;;;26.08;5.47;;;;;;;;;;5115022;28;20016;-28
2023/10/08 00:06:37;;;;;;;23.83;5.40;;;;;;;;;;5115187;28;20023;-28
2023/10/08 00:09:06;;;;;;;32.75;5.70;;;;;;;;;;5115228;28;20019;-29
2023/10/08 00:11:33;;;;;;;33.95;5.72;;;;;;;;;;5115186;28;20424;-28
2023/10/08 00:14:01;;;;;;;28.65;5.78;;;;;;;;;;5115350;28;20016;-29
2023/10/08 00:16:28;;;;;;;36.70;5.93;;;;;;;;;;5114924;28;20377;-29
2023/10/08 00:18:58;;;;;;;30.25;6.15;;;;;;;;;;5115041;28;20435;-28
2023/10/08 00:21:26;;;;;;;25.85;5.50;;;;;;;;;;5114974;28;20526;-28
2023/10/08 00:23:57;;;;;;;28.50;5.93;;;;;;;;;;5115268;28;20012;-28
2023/10/08 00:26:31;;;;;;;24.60;5.85;;;;;;;;;;5115397;28;20028;-28
2023/10/08 00:28:59;;;;;;;28.00;5.50;;;;;;;;;;5114571;28;20019;-28
2023/10/08 00:31:26;;;;;;;25.73;5.28;;;;;;;;;;5114829;28;20051;-28
2023/10/08 00:33:51;;;;;;;28.92;5.57;;;;;;;;;;5094947;28;20019;-28
2023/10/08 00:36:20;;;;;;;24.63;5.22;;;;;;;;;;5114001;28;20035;-28
2023/10/08 00:38:59;;;;;;;27.35;5.55;;;;;;;;;;5114127;28;20018;-28
2023/10/08 00:41:28;;;;;;;31.30;5.90;;;;;;;;;;5113953;28;20024;-29
2023/10/08 00:43:55;;;;;;;27.85;5.55;;;;;;;;;;5114646;28;20012;-28
2023/10/08 00:46:23;;;;;;;33.85;5.65;;;;;;;;;;5114329;28;20030;-29
2023/10/08 00:48:54;;;;;;;29.42;5.90;;;;;;;;;;5114160;28;20019;-29
2023/10/08 00:53:57;;;;;;;23.65;5.63;;;;;;;;;;5114521;28;20061;-28
2023/10/08 00:56:25;;;;;;;28.35;5.70;;;;;;;;;;5114340;28;20015;-28
2023/10/08 00:58:53;;;;;;;31.23;6.03;;;;;;;;;;5114155;28;20019;-28
2023/10/08 01:01:20;;;;;;;30.70;6.03;;;;;;;;;;5114360;28;20019;-28
2023/10/08 01:03:45;;;;;;;32.28;5.55;;;;;;;;;;5114336;28;20065;-29
2023/10/08 01:06:12;;;;;;;25.17;5.65;;;;;;;;;;5114218;28;20024;-28
2023/10/08 01:08:38;;;;;;;24.98;5.93;;;;;;;;;;5114586;28;20103;-28
2023/10/08 01:11:22;;;;;;;28.15;6.57;;;;;;;;;;5114298;28;20015;-28
2023/10/08 01:13:49;;;;;;;25.77;5.28;;;;;;;;;;5114118;28;20024;-28
2023/10/08 01:16:15;;;;;;;30.65;6.38;;;;;;;;;;5114432;28;20040;-28
2023/10/08 01:18:43;;;;;;;33.22;6.85;;;;;;;;;;5113957;28;20016;-28
2023/10/08 01:21:15;;;;;;;29.20;6.75;;;;;;;;;;5114080;28;20451;-28
2023/10/08 01:23:46;;;;;;;27.33;6.35;;;;;;;;;;5113883;28;20016;-28
2023/10/08 01:26:12;;;;;;;30.55;6.50;;;;;;;;;;5114113;28;20024;-28
2023/10/08 01:28:38;;;;;;;26.27;5.78;;;;;;;;;;5113760;28;20027;-28
2023/10/08 01:31:07;;;;;;;30.40;6.43;;;;;;;;;;5113786;28;20031;-28
2023/10/08 01:33:37;;;;;;;24.00;5.93;;;;;;;;;;5114333;28;20392;-28
2023/10/08 01:36:04;;;;;;;27.15;6.15;;;;;;;;;;5114511;28;20016;-29
2023/10/08 01:38:33;;;;;;;35.55;6.03;;;;;;;;;;5113679;28;20020;-28
2023/10/08 01:41:03;;;;;;;26.48;5.75;;;;;;;;;;5113994;28;20018;-28
2023/10/08 01:43:29;;;;;;;23.27;6.22;;;;;;;;;;5113698;28;20047;-29
2023/10/08 01:45:54;;;;;;;28.58;6.68;;;;;;;;;;5113948;28;20026;-29
2023/10/08 01:48:25;;;;;;;21.52;6.05;;;;;;;;;;5096208;28;20023;-29
2023/10/08 01:50:54;;;;;;;25.65;6.13;;;;;;;;;;5114226;28;20055;-29
2023/10/08 01:53:20;;;;;;;21.98;6.50;;;;;;;;;;5117894;28;20031;-29
2023/10/08 01:55:48;;;;;;;28.52;6.35;;;;;;;;;;5117400;28;20023;-29
2023/10/08 01:58:16;;;;;;;25.23;5.93;;;;;;;;;;5117818;28;20080;-29
2023/10/08 02:00:45;;;;;;;27.88;6.75;;;;;;;;;;5117465;28;20031;-29
2023/10/08 02:03:12;;;;;;;29.50;6.63;;;;;;;;;;5117710;28;20020;-29
2023/10/08 02:05:41;;;;;;;31.77;6.32;;;;;;;;;;5117423;28;20008;-29
2023/10/08 02:08:07;;;;;;;27.67;6.40;;;;;;;;;;5117630;28;20525;-29
2023/10/08 02:10:33;;;;;;;25.00;5.97;;;;;;;;;;5099084;28;20145;-29
2023/10/08 02:12:58;;;;;;;31.20;6.47;;;;;;;;;;5117537;28;20373;-29
2023/10/08 02:15:23;;;;;;;33.03;6.63;;;;;;;;;;5117116;28;20030;-29
2023/10/08 02:17:49;;;;;;;31.80;7.40;;;;;;;;;;5117222;28;20458;-30
2023/10/08 02:20:16;;;;;;;22.33;6.32;;;;;;;;;;5117288;28;20371;-29
2023/10/08 02:22:41;;;;;;;28.30;6.40;;;;;;;;;;5117328;28;20366;-29
2023/10/08 02:25:08;;;;;;;31.40;6.70;;;;;;;;;;5117029;28;20018;-29
2023/10/08 02:27:34;;;;;;;24.58;5.97;;;;;;;;;;5117235;28;20014;-29
2023/10/08 02:29:59;;;;;;;30.00;6.32;;;;;;;;;;5116904;28;20087;-29
2023/10/08 02:32:24;;;;;;;36.17;7.75;;;;;;;;;;5098666;28;20052;-29
2023/10/08 02:34:50;;;;;;;27.17;6.40;;;;;;;;;;5116812;28;20458;-29
2023/10/08 02:37:16;;;;;;;30.75;6.75;;;;;;;;;;5116661;28;20381;-29
2023/10/08 02:39:41;;;;;;;32.47;7.00;;;;;;;;;;5116949;28;20095;-29
2023/10/08 02:42:10;;;;;;;25.90;6.70;;;;;;;;;;5116966;28;20019;-29
2023/10/08 02:44:41;;;;;;;20.92;6.20;;;;;;;;;;5116612;28;20318;-29
2023/10/08 02:47:08;;;;;;;25.83;6.60;;;;;;;;;;5116864;28;20015;-29
2023/10/08 02:49:34;;;;;;;22.40;6.60;;;;;;;;;;5116552;28;20039;-29
2023/10/08 02:51:59;;;;;;;24.48;6.75;;;;;;;;;;5116764;28;20455;-29
2023/10/08 02:54:31;;;;;;;25.87;7.33;;;;;;;;;;5116427;28;20031;-29
2023/10/08 02:57:03;;;;;;;28.85;6.90;;;;;;;;;;5116838;28;20804;-29
2023/10/08 03:00:12;;;;;;;24.73;6.82;;;;;;;;;;5116631;28;20160;-30
2023/10/08 03:02:24;;;;;;;29.80;6.43;;;;;;;;;;5110156;28;20020;-29
2023/10/08 03:04:52;;;;;;;25.92;6.90;;;;;;;;;;5116451;28;20027;-29
2023/10/08 03:07:32;;;;;;;22.27;6.20;;;;;;;;;;5116380;28;20072;-28
2023/10/08 03:10:06;;;;;;;26.90;6.53;;;;;;;;;;5116404;28;20019;-28
2023/10/08 03:12:35;;;;;;;29.63;7.28;;;;;;;;;;5116362;28;20398;-28
2023/10/08 03:17:51;;;;;;;23.98;6.80;;;;;;;;;;5116887;28;20080;-28
2023/10/08 03:23:03;;;;;;;24.65;7.22;;;;;;;;;;5116760;28;20088;-33
2023/10/08 03:25:30;;;;;;;32.00;7.10;;;;;;;;;;5116130;28;20011;-28
2023/10/08 03:27:57;;;;;;;27.60;7.80;;;;;;;;;;5116073;28;20019;-28
2023/10/08 03:30:26;;;;;;;29.70;7.05;;;;;;;;;;5115998;28;20015;-28
2023/10/08 03:32:55;;;;;;;26.65;6.82;;;;;;;;;;5115963;28;20378;-28
2023/10/08 03:35:27;;;;;;;33.13;7.55;;;;;;;;;;5115543;28;20020;-28
2023/10/08 03:37:54;;;;;;;31.23;6.60;;;;;;;;;;5098793;28;20020;-28
2023/10/08 03:40:31;;;;;;;27.95;6.25;;;;;;;;;;5115774;28;20474;-28
2023/10/08 03:42:57;;;;;;;35.08;6.78;;;;;;;;;;5115721;28;20047;-28
2023/10/08 03:48:06;;;;;;;22.83;6.57;;;;;;;;;;5115972;28;20105;-28
2023/10/08 03:50:41;;;;;;;34.35;6.63;;;;;;;;;;5096911;28;20040;-28
2023/10/08 03:53:11;;;;;;;26.88;6.57;;;;;;;;;;5115639;28;20465;-29
2023/10/08 03:55:42;;;;;;;23.10;5.57;;;;;;;;;;5115494;28;20090;-28
2023/10/08 03:58:19;;;;;;;31.48;6.43;;;;;;;;;;5096959;28;20020;-28
2023/10/08 04:00:45;;;;;;;26.13;5.53;;;;;;;;;;5116290;28;20047;-29
2023/10/08 04:03:11;;;;;;;28.40;5.63;;;;;;;;;;5115363;28;20024;-28
2023/10/08 04:08:34;;;;;;;26.42;5.13;;;;;;;;;;5115057;28;20027;-28
2023/10/08 04:14:00;;;;;;;26.58;5.13;;;;;;;;;;5080700;28;20023;-28
2023/10/08 04:16:27;;;;;;;18.30;4.55;;;;;;;;;;5114764;28;20070;-28
2023/10/08 04:18:55;;;;;;;14.10;4.57;;;;;;;;;;5114782;28;20054;-28
2023/10/08 04:21:21;;;;;;;20.30;5.00;;;;;;;;;;5115083;28;20023;-28
2023/10/08 04:23:52;;;;;;;22.98;4.93;;;;;;;;;;5114690;28;20099;-28
2023/10/08 04:26:23;;;;;;;22.30;4.32;;;;;;;;;;5114644;28;20015;-28
2023/10/08 04:28:48;;;;;;;18.48;4.10;;;;;;;;;;5114650;28;20102;-28
2023/10/08 04:31:16;;;;;;;15.33;4.23;;;;;;;;;;5115138;28;20065;-28
2023/10/08 04:33:44;;;;;;;18.90;3.78;;;;;;;;;;5114478;28;20265;-28
2023/10/08 04:36:09;;;;;;;16.30;3.67;;;;;;;;;;5114370;28;20073;-28
2023/10/08 04:38:39;;;;;;;11.85;3.00;;;;;;;;;;5114765;28;20166;-28
2023/10/08 04:41:08;;;;;;;14.55;3.13;;;;;;;;;;5114658;28;20053;-28
2023/10/08 04:43:37;;;;;;;9.38;2.60;;;;;;;;;;5114605;28;20481;-28
2023/10/08 04:46:18;;;;;;;12.25;2.80;;;;;;;;;;5114929;28;20026;-28
2023/10/08 04:48:43;;;;;;;12.05;2.58;;;;;;;;;;5114230;28;20466;-28
2023/10/08 04:51:12;;;;;;;8.00;2.67;;;;;;;;;;5114236;28;20031;-28
2023/10/08 04:53:40;;;;;;;11.35;2.60;;;;;;;;;;5114452;28;20102;-28
2023/10/08 04:56:13;;;;;;;8.02;2.50;;;;;;;;;;5114252;28;20015;-28
2023/10/08 04:58:40;;;;;;;13.15;2.65;;;;;;;;;;5114404;28;20019;-28
2023/10/08 05:01:17;;;;;;;10.40;2.72;;;;;;;;;;5114387;28;20023;-28
2023/10/08 05:14:55;;;;;;;6.93;2.40;;;;;;;;;;5114142;28;20039;-28
2023/10/08 05:17:11;;;;;;;8.88;2.45;;;;;;;;;;5113335;28;20023;-40
2023/10/08 05:49:02;;;;;;;6.75;3.00;;;;;;;;;;5118379;28;20051;-35
2023/10/08 05:57:07;;;;;;;8.00;2.88;;;;;;;;;;5116606;28;20390;-34
2023/10/08 05:59:39;;;;;;;8.10;3.50;;;;;;;;;;5117821;28;20008;-35
2023/10/08 06:02:39;;;;;;;9.00;2.92;;;;;;;;;;5116984;28;20035;-34
2023/10/08 06:05:09;;;;;;;8.38;2.83;;;;;;;;;;5116284;28;20054;-34
2023/10/08 06:07:47;;;;;;;9.63;2.90;;;;;;;;;;5116323;28;20031;-34
2023/10/08 06:10:41;;;;;;;10.15;2.55;;;;;;;;;;5098548;28;20049;-34
2023/10/08 06:13:04;;;;;;;8.52;2.50;;;;;;;;;;5116348;28;20024;-34
2023/10/08 06:15:48;;;;;;;12.50;2.97;;;;;;;;;;5098416;28;20522;-34
2023/10/08 06:18:19;;;;;;;8.00;2.40;;;;;;;;;;5117397;28;20016;-34
2023/10/08 06:20:48;;;;;;;10.95;2.95;;;;;;;;;;5117376;28;20020;-34
2023/10/08 06:23:18;;;;;;;8.63;2.47;;;;;;;;;;5117073;28;20011;-34
2023/10/08 06:25:45;;;;;;;9.38;2.10;;;;;;;;;;5117247;28;20026;-35
2023/10/08 06:28:20;;;;;;;9.40;2.47;;;;;;;;;;5117495;28;20027;-34
2023/10/08 06:30:49;;;;;;;7.90;2.58;;;;;;;;;;5117156;28;20031;-34
2023/10/08 06:33:14;;;;;;;7.28;2.00;;;;;;;;;;5116860;28;20019;-34
2023/10/08 06:35:44;;;;;;;8.80;2.40;;;;;;;;;;5116702;28;20024;-35
2023/10/08 06:38:09;;;;;;;8.38;2.40;;;;;;;;;;5115650;28;20359;-34
2023/10/08 06:43:11;;;;;;;5.57;2.00;;;;;;;;;;5116986;28;20031;-34
2023/10/08 06:45:37;;;;;;;6.13;2.25;;;;;;;;;;5116809;28;20029;-34
2023/10/08 06:48:06;;;;;;;4.22;1.80;;;;;;;;;;5116775;28;20373;-34
2023/10/08 06:50:34;;;;;;;3.03;1.40;;;;;;;;;;5116375;28;20098;-35
2023/10/08 06:52:59;;;;;;;3.92;1.60;;;;;;;;;;5116770;28;20066;-35
2023/10/08 06:55:26;;;;;;;3.72;1.35;;;;;;;;;;5116988;28;20394;-35
2023/10/08 06:57:52;;;;;;;2.47;1.23;;;;;;;;;;5116387;28;20020;-36
2023/10/08 07:00:38;;;;;;;2.30;0.90;;;;;;;;;;5116317;28;20015;-35
2023/10/08 07:03:02;;;;;;;4.60;1.13;;;;;;;;;;5116166;28;20062;-34
2023/10/08 07:05:28;;;;;;;1.15;0.80;;;;;;;;;;5116325;28;20011;-34
2023/10/08 07:07:54;;;;;;;3.60;1.05;;;;;;;;;;5116484;28;20019;-34
2023/10/08 07:10:19;;;;;;;2.28;0.52;;;;;;;;;;5116199;28;20366;-37
2023/10/08 07:12:46;;;;;;;3.30;0.90;;;;;;;;;;5116412;28;20343;-35
2023/10/08 07:15:13;;;;;;;2.05;0.80;;;;;;;;;;5116216;28;20011;-35
2023/10/08 07:17:40;;;;;;;2.90;0.82;;;;;;;;;;5116218;28;20021;-36
2023/10/08 07:20:12;;;;;;;1.83;0.80;;;;;;;;;;5116212;28;20494;-35
2023/10/08 07:22:38;;;;;;;3.65;0.90;;;;;;;;;;5116146;28;20103;-37
2023/10/08 07:25:08;;;;;;;1.85;0.85;;;;;;;;;;5115874;28;20022;-35
2023/10/08 07:27:37;;;;;;;1.77;1.00;;;;;;;;;;5115809;28;20153;-35
2023/10/08 07:30:10;;;;;;;2.70;1.02;;;;;;;;;;5115753;28;20041;-35
2023/10/08 07:32:35;;;;;;;1.77;0.95;;;;;;;;;;5115694;28;20102;-35
2023/10/08 07:37:44;;;;;;;3.10;1.00;;;;;;;;;;5115944;28;20264;-35
2023/10/08 07:40:12;;;;;;;2.67;1.08;;;;;;;;;;5115902;28;20011;-36
2023/10/08 07:42:37;;;;;;;1.77;1.00;;;;;;;;;;5115823;28;20043;-35
2023/10/08 07:45:04;;;;;;;2.53;1.03;;;;;;;;;;5116063;28;20011;-35
2023/10/08 07:47:29;;;;;;;2.42;1.15;;;;;;;;;;5115354;28;20249;-35
2023/10/08 07:49:55;;;;;;;2.40;1.37;;;;;;;;;;5115761;28;20047;-35
2023/10/08 07:52:20;;;;;;;2.10;1.13;;;;;;;;;;5115583;28;20253;-35
2023/10/08 07:54:46;;;;;;;1.98;1.40;;;;;;;;;;5115546;28;20024;-35
2023/10/08 07:57:26;;;;;;;3.25;1.40;;;;;;;;;;5115444;28;20020;-36
2023/10/08 07:59:54;;;;;;;2.25;1.33;;;;;;;;;;5115195;28;20015;-36
2023/10/08 08:02:23;;;;;;;3.38;1.20;;;;;;;;;;5115394;28;20016;-36
2023/10/08 08:04:50;;;;;;;2.72;1.20;;;;;;;;;;5115313;28;20046;-35
2023/10/08 08:07:16;;;;;;;2.40;1.48;;;;;;;;;;5115296;28;20027;-38
2023/10/08 08:09:51;;;;;;;2.58;1.60;;;;;;;;;;5114981;28;20019;-35
2023/10/08 08:12:21;;;;;;;5.57;1.77;;;;;;;;;;5115168;28;20466;-36
2023/10/08 08:14:47;;;;;;;2.25;1.60;;;;;;;;;;5114711;28;20051;-36
2023/10/08 08:17:13;;;;;;;2.63;1.77;;;;;;;;;;5114976;28;20020;-36
2023/10/08 08:19:39;;;;;;;2.95;1.70;;;;;;;;;;5115034;28;20015;-36
2023/10/08 08:22:04;;;;;;;4.70;1.88;;;;;;;;;;5115032;28;20343;-35
2023/10/08 08:24:31;;;;;;;2.85;1.58;;;;;;;;;;5114905;28;20015;-38
2023/10/08 08:27:11;;;;;;;2.88;1.60;;;;;;;;;;5114958;28;20020;-35
2023/10/08 08:29:45;;;;;;;3.88;1.63;;;;;;;;;;5114880;28;20047;-35
2023/10/08 08:32:15;;;;;;;4.05;1.88;;;;;;;;;;5114843;28;20351;-35
2023/10/08 08:34:43;;;;;;;5.75;1.80;;;;;;;;;;5114775;28;20098;-35
2023/10/08 08:37:09;;;;;;;2.25;1.45;;;;;;;;;;5115207;28;20020;-36
2023/10/08 08:39:36;;;;;;;3.45;2.00;;;;;;;;;;5114441;28;20065;-35
2023/10/08 08:42:04;;;;;;;3.50;1.70;;;;;;;;;;5114664;28;20474;-36
2023/10/08 08:44:30;;;;;;;3.17;1.80;;;;;;;;;;5114355;28;20018;-35
2023/10/08 08:46:58;;;;;;;3.28;1.63;;;;;;;;;;5114624;28;20027;-36
2023/10/08 08:49:23;;;;;;;4.38;1.95;;;;;;;;;;5114181;28;20085;-35
2023/10/08 08:51:53;;;;;;;4.68;2.00;;;;;;;;;;5114235;28;20455;-37
2023/10/08 08:54:19;;;;;;;4.00;1.90;;;;;;;;;;5113876;28;20016;-38
2023/10/08 08:56:45;;;;;;;3.95;1.80;;;;;;;;;;5114333;28;20164;-35
2023/10/08 08:59:13;;;;;;;5.05;1.70;;;;;;;;;;5114117;28;20092;-35
2023/10/08 09:01:38;;;;;;;3.30;1.60;;;;;;;;;;5113509;28;20026;-36
2023/10/08 09:04:05;;;;;;;4.03;1.73;;;;;;;;;;5114233;28;20462;-35
2023/10/08 09:06:32;;;;;;;6.00;1.83;;;;;;;;;;5114092;28;20085;-35
2023/10/08 09:09:11;;;;;;;3.20;1.67;;;;;;;;;;5114248;28;20028;-36
2023/10/08 09:11:40;;;;;;;8.65;1.98;;;;;;;;;;5114211;28;20547;-36
2023/10/08 09:14:10;;;;;;;2.58;1.45;;;;;;;;;;5113617;28;20026;-37
2023/10/08 09:16:35;;;;;;;3.30;1.42;;;;;;;;;;5113557;28;20416;-35
2023/10/08 09:19:01;;;;;;;4.13;1.70;;;;;;;;;;5113155;28;20023;-36
2023/10/08 09:21:26;;;;;;;6.78;1.80;;;;;;;;;;5113075;28;20454;-36
2023/10/08 09:23:54;;;;;;;2.90;1.43;;;;;;;;;;5113261;28;20016;-36
2023/10/08 09:26:22;;;;;;;3.25;1.77;;;;;;;;;;5113070;28;20023;-36
2023/10/08 09:28:51;;;;;;;3.30;1.60;;;;;;;;;;5113232;28;20028;-38
2023/10/08 09:31:19;;;;;;;3.60;1.60;;;;;;;;;;5113625;28;20028;-36
2023/10/08 09:33:54;;;;;;;3.63;1.55;;;;;;;;;;5113645;28;20020;-38
2023/10/08 09:36:20;;;;;;;4.10;1.70;;;;;;;;;;5113506;28;20106;-36
2023/10/08 09:38:48;;;;;;;4.00;1.73;;;;;;;;;;5113855;28;20398;-35
2023/10/08 09:41:13;;;;;;;3.38;1.20;;;;;;;;;;5113900;28;20016;-36
2023/10/08 09:43:41;;;;;;;5.97;1.45;;;;;;;;;;5114327;28;20047;-38
2023/10/08 09:46:22;;;;;;;3.67;1.60;;;;;;;;;;5113720;28;20023;-36
2023/10/08 09:48:52;;;;;;;6.38;1.70;;;;;;;;;;5113604;28;20024;-36
2023/10/08 09:51:18;;;;;;;4.28;1.83;;;;;;;;;;5113679;28;20031;-36
2023/10/08 09:53:49;;;;;;;4.72;1.60;;;;;;;;;;5113853;28;20020;-35
2023/10/08 09:56:15;;;;;;;9.70;1.50;;;;;;;;;;5113296;28;20022;-36
2023/10/08 09:58:41;;;;;;;5.22;1.52;;;;;;;;;;5113218;28;20047;-36
2023/10/08 10:01:07;;;;;;;5.13;1.90;;;;;;;;;;5113184;28;20024;-35
2023/10/08 10:03:36;;;;;;;3.53;1.30;;;;;;;;;;5113205;28;20008;-36
2023/10/08 10:06:01;;;;;;;10.88;2.03;;;;;;;;;;5113475;28;20408;-35
2023/10/08 10:08:28;;;;;;;5.88;1.80;;;;;;;;;;5113159;28;20023;-35
2023/10/08 10:11:00;;;;;;;5.43;1.80;;;;;;;;;;5109172;22;20053;-70
2023/10/08 10:13:29;;;;;;;6.75;2.30;;;;;;;;;;5060312;28;20077;-69
2023/10/08 10:15:54;;;;;;;9.05;1.88;;;;;;;;;;5042424;28;20024;-69
2023/10/08 10:18:25;;;;;;;6.10;1.87;;;;;;;;;;5059190;28;20469;-72
2023/10/08 10:20:51;;;;;;;5.72;1.90;;;;;;;;;;5057519;28;20345;-68
2023/10/08 10:23:31;;;;;;;8.80;2.00;;;;;;;;;;5057816;28;20411;-71
2023/10/08 10:25:57;;;;;;;4.45;1.80;;;;;;;;;;5056684;28;20017;-70
2023/10/08 10:28:22;;;;;;;5.00;2.00;;;;;;;;;;5038332;28;20020;-71
2023/10/08 10:30:48;;;;;;;7.82;2.40;;;;;;;;;;5039718;28;20278;-71
2023/10/08 10:33:13;;;;;;;7.40;2.08;;;;;;;;;;5056160;28;20100;-71
2023/10/08 10:35:40;;;;;;;4.50;1.90;;;;;;;;;;5039843;28;20111;-72
2023/10/08 10:38:06;;;;;;;13.50;2.28;;;;;;;;;;5057333;28;20262;-74
2023/10/08 10:40:40;;;;;;;6.35;1.90;;;;;;;;;;5057719;28;20391;-72
2023/10/08 10:43:15;;;;;;;9.18;4.68;;;;;;;;;;5055304;28;20020;-71
2023/10/08 10:45:42;;;;;;;4.88;2.08;;;;;;;;;;5056172;28;20044;-72
2023/10/08 10:48:13;;;;;;;11.07;2.25;;;;;;;;;;5056733;28;20127;-71
2023/10/08 10:53:27;;;;;;;7.88;3.95;;;;;;;;;;5055621;28;20384;-70
2023/10/08 10:55:59;;;;;;;5.97;1.95;;;;;;;;;;5059208;28;20426;-69
2023/10/08 10:58:24;;;;;;;;;;;;;;;;;;5039623;28;20055;-68
2023/10/08 11:00:57;;;;;;;4.72;1.85;;;;;;;;;;5055913;28;19912;-72
2023/10/08 11:03:25;;;;;;;6.15;2.25;;;;;;;;;;5056372;28;20021;-72
2023/10/08 11:05:54;;;;;;;4.63;2.25;;;;;;;;;;5055435;28;20031;-70
2023/10/08 11:08:22;;;;;;;7.25;2.28;;;;;;;;;;5037007;28;20021;-73
2023/10/08 11:10:51;;;;;;;11.55;3.30;;;;;;;;;;5036251;28;20427;-71
2023/10/08 11:13:17;;;;;;;7.32;2.80;;;;;;;;;;5036821;28;20052;-71
2023/10/08 11:15:43;;;;;;;5.15;2.30;;;;;;;;;;5036968;28;20063;-71
2023/10/08 11:18:11;;;;;;;6.45;2.40;;;;;;;;;;5054865;28;20017;-70
2023/10/08 11:20:39;;;;;;;7.00;2.33;;;;;;;;;;5054560;28;20017;-70
2023/10/08 11:23:21;;;;;;;6.50;2.47;;;;;;;;;;5054533;28;20048;-72
2023/10/08 11:26:05;;;;;;;4.78;2.30;;;;;;;;;;5055010;28;20067;-71
2023/10/08 11:28:35;;;;;;;6.07;2.58;;;;;;;;;;5054913;28;20063;-69
2023/10/08 11:31:09;;;;;;;6.53;2.30;;;;;;;;;;5053941;28;20024;-69
2023/10/08 11:33:38;;;;;;;5.25;2.38;;;;;;;;;;5055353;28;20014;-71
2023/10/08 11:36:18;;;;;;;7.60;2.83;;;;;;;;;;5036837;28;20079;-74
2023/10/08 11:38:47;;;;;;;8.70;2.80;;;;;;;;;;5052658;28;20096;-70
2023/10/08 11:41:20;;;;;;;4.15;2.42;;;;;;;;;;5052150;28;20418;-72
2023/10/08 11:43:46;;;;;;;8.35;3.92;;;;;;;;;;5052532;28;20426;-73
2023/10/08 11:46:14;;;;;;;8.93;4.30;;;;;;;;;;5052391;28;20024;-71
2023/10/08 11:48:43;;;;;;;6.75;3.13;;;;;;;;;;5052283;28;20474;-72
2023/10/08 11:51:11;;;;;;;10.15;2.90;;;;;;;;;;5052376;28;20023;-72
2023/10/08 11:53:37;;;;;;;7.53;2.90;;;;;;;;;;5035257;28;20025;-71
2023/10/08 11:56:02;;;;;;;10.70;3.10;;;;;;;;;;5054345;28;20028;-72
2023/10/08 11:58:37;;;;;;;12.73;3.28;;;;;;;;;;5054275;28;20719;-72
2023/10/08 12:01:03;;;;;;;11.15;3.30;;;;;;;;;;5054919;28;20017;-70
2023/10/08 12:03:28;;;;;;;8.90;3.50;;;;;;;;;;5054545;28;20020;-72
2023/10/08 12:05:59;;;;;;;6.60;2.80;;;;;;;;;;5036314;28;20024;-70
2023/10/08 12:08:27;;;;;;;7.32;3.33;;;;;;;;;;5036491;28;20021;-68
2023/10/08 12:10:54;;;;;;;9.82;3.25;;;;;;;;;;5054150;28;20040;-69
2023/10/08 12:13:23;;;;;;;9.90;3.83;;;;;;;;;;5036213;28;20040;-71
2023/10/08 12:15:50;;;;;;;7.03;3.38;;;;;;;;;;5036034;28;20487;-71
2023/10/08 12:18:18;;;;;;;6.65;3.50;;;;;;;;;;5035817;28;20045;-70
2023/10/08 12:20:46;;;;;;;7.53;3.50;;;;;;;;;;5054061;28;20474;-70
2023/10/08 12:23:18;;;;;;;12.02;3.45;;;;;;;;;;5035835;28;20017;-71
2023/10/08 12:25:51;;;;;;;7.45;3.67;;;;;;;;;;5035445;28;20074;-71
2023/10/08 12:28:16;;;;;;;8.77;3.53;;;;;;;;;;5053333;28;20009;-70
2023/10/08 12:30:42;;;;;;;13.85;3.70;;;;;;;;;;5035395;28;20365;-71
2023/10/08 12:33:09;;;;;;;7.78;3.70;;;;;;;;;;5035916;28;20148;-71
2023/10/08 12:35:37;;;;;;;7.53;3.38;;;;;;;;;;5035180;28;20088;-71
2023/10/08 12:38:02;;;;;;;12.23;3.78;;;;;;;;;;5053113;28;20028;-70
2023/10/08 12:40:41;;;;;;;10.27;4.28;;;;;;;;;;5053756;28;20009;-70
2023/10/08 12:43:07;;;;;;;9.98;4.20;;;;;;;;;;5053550;28;20088;-69
2023/10/08 12:45:32;;;;;;;5.55;3.85;;;;;;;;;;5053645;28;20068;-70
2023/10/08 12:47:58;;;;;;;15.93;5.40;;;;;;;;;;5054775;28;20024;-70
2023/10/08 12:50:29;;;;;;;11.68;4.55;;;;;;;;;;5055753;28;20024;-70
2023/10/08 12:52:57;;;;;;;7.57;4.30;;;;;;;;;;5053659;28;20017;-71
2023/10/08 12:55:23;;;;;;;20.02;5.75;;;;;;;;;;5054038;28;20013;-71
2023/10/08 12:57:55;;;;;;;8.23;4.20;;;;;;;;;;5053297;28;20078;-70
2023/10/08 13:00:23;;;;;;;9.65;4.55;;;;;;;;;;5053398;28;20021;-67
2023/10/08 13:02:53;;;;;;;6.60;4.13;;;;;;;;;;5054415;28;20091;-70
2023/10/08 13:05:21;;;;;;;12.27;4.35;;;;;;;;;;5036381;28;20146;-70
2023/10/08 13:07:46;;;;;;;8.70;4.30;;;;;;;;;;5035873;28;20029;-69
2023/10/08 13:10:14;;;;;;;8.60;3.90;;;;;;;;;;5036046;28;20044;-71
2023/10/08 13:12:39;;;;;;;7.72;3.92;;;;;;;;;;5054582;28;20107;-72
2023/10/08 13:15:06;;;;;;;8.87;3.60;;;;;;;;;;5054135;28;20040;-69
2023/10/08 13:17:31;;;;;;;21.67;5.53;;;;;;;;;;5054361;28;20279;-71
2023/10/08 13:19:56;;;;;;;18.23;4.88;;;;;;;;;;5053957;28;20306;-72
2023/10/08 13:22:24;;;;;;;9.77;3.90;;;;;;;;;;5035752;28;20021;-71
2023/10/08 13:24:49;;;;;;;12.10;4.00;;;;;;;;;;5053761;28;20028;-70
2023/10/08 13:27:16;;;;;;;13.00;4.07;;;;;;;;;;5053309;28;20017;-71
2023/10/08 13:29:43;;;;;;;9.48;3.05;;;;;;;;;;5034270;28;20434;-70
2023/10/08 13:32:17;;;;;;;13.90;3.83;;;;;;;;;;5034283;28;20411;-70
2023/10/08 13:34:42;;;;;;;17.23;3.88;;;;;;;;;;5052830;28;20442;-68
2023/10/08 13:37:07;;;;;;;11.52;3.40;;;;;;;;;;5052684;28;20076;-70
2023/10/08 13:39:35;;;;;;;8.85;3.63;;;;;;;;;;5054995;28;20455;-70
2023/10/08 13:42:01;;;;;;;12.25;3.80;;;;;;;;;;5035856;28;20017;-71
2023/10/08 13:44:28;;;;;;;8.43;3.08;;;;;;;;;;5035291;28;20096;-70
2023/10/08 13:46:57;;;;;;;16.33;3.92;;;;;;;;;;5054110;28;20031;-70
2023/10/08 13:49:22;;;;;;;9.73;2.92;;;;;;;;;;5057616;28;20067;-71
2023/10/08 13:51:55;;;;;;;11.77;3.60;;;;;;;;;;5039812;28;20412;-71
2023/10/08 13:54:20;;;;;;;7.15;2.83;;;;;;;;;;5057356;28;20516;-70
2023/10/08 13:56:48;;;;;;;7.03;3.13;;;;;;;;;;5057357;28;20100;-70
2023/10/08 13:59:13;;;;;;;7.97;2.83;;;;;;;;;;5057652;28;20341;-71
2023/10/08 14:01:42;;;;;;;9.13;2.80;;;;;;;;;;5057007;28;20096;-71
2023/10/08 14:04:09;;;;;;;7.47;2.80;;;;;;;;;;5039335;28;20067;-70
2023/10/08 14:06:34;;;;;;;6.22;2.70;;;;;;;;;;5056702;28;20025;-71
2023/10/08 14:09:00;;;;;;;5.45;2.70;;;;;;;;;;5057019;28;20017;-69
2023/10/08 14:11:30;;;;;;;10.45;3.05;;;;;;;;;;5056794;28;20120;-72
2023/10/08 14:13:55;;;;;;;5.55;2.40;;;;;;;;;;5039222;28;20013;-71
2023/10/08 14:16:23;;;;;;;10.98;2.80;;;;;;;;;;5055783;28;20107;-72
2023/10/08 14:18:53;;;;;;;7.28;2.65;;;;;;;;;;5038016;28;20024;-72
2023/10/08 14:21:19;;;;;;;6.30;2.45;;;;;;;;;;5056019;28;20020;-72
2023/10/08 14:23:44;;;;;;;21.85;4.25;;;;;;;;;;5054861;28;20028;-72
2023/10/08 14:26:10;;;;;;;5.47;2.57;;;;;;;;;;5054539;28;20009;-71
2023/10/08 14:28:43;;;;;;;6.32;2.38;;;;;;;;;;5053491;28;20095;-69
2023/10/08 14:31:15;;;;;;;7.18;2.60;;;;;;;;;;5054668;28;20021;-69
2023/10/08 14:33:55;;;;;;;6.05;2.50;;;;;;;;;;5054578;28;20028;-68
2023/10/08 14:44:34;;;;;;;11.35;2.58;;;;;;;;;;5056802;28;20052;-69
2023/10/08 14:46:59;;;;;;;6.60;2.30;;;;;;;;;;5056093;28;20537;-69
2023/10/08 14:49:25;;;;;;;7.15;2.55;;;;;;;;;;5037801;28;20025;-69
2023/10/08 14:51:53;;;;;;;8.18;2.55;;;;;;;;;;5055406;28;20020;-70
2023/10/08 14:54:18;;;;;;;6.40;2.47;;;;;;;;;;5037440;28;20013;-68
2023/10/08 14:56:43;;;;;;;7.57;2.20;;;;;;;;;;5037041;28;20036;-68
2023/10/08 14:59:08;;;;;;;7.37;2.70;;;;;;;;;;5053903;28;20734;-68
2023/10/08 15:01:34;;;;;;;4.63;2.30;;;;;;;;;;5053541;28;20258;-68
2023/10/08 15:04:05;;;;;;;9.68;2.58;;;;;;;;;;5035324;28;20252;-68
2023/10/08 15:06:31;;;;;;;5.78;2.50;;;;;;;;;;5052965;28;20016;-69
2023/10/08 15:08:57;;;;;;;10.38;2.85;;;;;;;;;;5053057;28;20379;-69
2023/10/08 15:11:22;;;;;;;6.75;2.58;;;;;;;;;;5052670;28;20099;-68
2023/10/08 15:13:49;;;;;;;9.18;2.50;;;;;;;;;;5053019;28;20471;-69
2023/10/08 15:16:15;;;;;;;9.73;2.95;;;;;;;;;;5054384;28;20017;-68
2023/10/08 15:18:42;;;;;;;9.50;2.78;;;;;;;;;;5054675;28;20071;-68
2023/10/08 15:21:08;;;;;;;5.63;2.60;;;;;;;;;;5055266;28;20013;-68
2023/10/08 15:23:33;;;;;;;6.75;2.63;;;;;;;;;;5037349;28;20028;-69
2023/10/08 15:25:59;;;;;;;7.05;2.53;;;;;;;;;;5055121;28;20496;-69
2023/10/08 15:28:24;;;;;;;15.70;2.63;;;;;;;;;;5054980;28;20067;-69
2023/10/08 15:30:49;;;;;;;8.23;3.00;;;;;;;;;;5054847;28;20476;-69
2023/10/08 15:33:16;;;;;;;10.00;2.90;;;;;;;;;;5037052;28;20270;-68
2023/10/08 15:35:41;;;;;;;6.40;2.75;;;;;;;;;;5054770;28;20070;-68
2023/10/08 15:38:06;;;;;;;6.72;2.72;;;;;;;;;;5054981;28;20028;-68
2023/10/08 15:40:33;;;;;;;6.63;3.00;;;;;;;;;;5037054;28;20020;-69
2023/10/08 15:42:58;;;;;;;7.93;2.95;;;;;;;;;;5036890;28;20256;-67
2023/10/08 15:45:24;;;;;;;6.33;2.97;;;;;;;;;;5036795;28;20024;-67
2023/10/08 15:47:49;;;;;;;5.80;3.10;;;;;;;;;;5054691;28;20270;-68
2023/10/08 15:50:15;;;;;;;12.85;3.90;;;;;;;;;;5054632;28;20024;-69
2023/10/08 15:52:40;;;;;;;7.97;3.38;;;;;;;;;;5037212;28;20021;-68
2023/10/08 15:55:06;;;;;;;9.13;3.72;;;;;;;;;;5036914;28;20013;-69
2023/10/08 15:57:31;;;;;;;6.65;2.90;;;;;;;;;;5054969;28;20056;-69
2023/10/08 15:59:56;;;;;;;7.03;2.83;;;;;;;;;;5037803;28;20093;-70
2023/10/08 16:02:22;;;;;;;7.27;2.93;;;;;;;;;;5055237;28;20095;-67
2023/10/08 16:04:47;;;;;;;6.22;3.03;;;;;;;;;;5037651;28;20294;-69